^^
Grace C. Lehan Memorial Weather Station Historical Data
Daily Summary for January 27, 2022 Units:  English    Metric   Both
Daily Weekly Monthly Yearly
  High: Low: Average:
Temperature: 29.1 °F 8 °F 19.9 °F
Dew Point: 18.9 °F 2.3 °F 9.1 °F
Humidity: 84.5% 40.9% 64%
Wind Speed: 3.7mph 0mph 0.4mph
Wind Gust: 12mph - -
Wind- - SW
Pressure: 30.49 in 30.18 in -
Precipitation: 0.00 in    
 
 
Tabular Data for January 27, 2022
Time Temperature Dew Point Pressure Wind Wind Speed Wind Gust Humidity Rainfall Rate (Hourly) solar
00:04 15.3 °F 2.8 °F 30.45 in Calm   7 mph 57% 0.00 in 0 W/m2
00:09 15.3 °F 2.8 °F 30.45 in Calm   1 mph 57% 0.00 in 0 W/m2
00:14 15.2 °F 2.7 °F 30.45 in Calm   1 mph 57% 0.00 in 0 W/m2
00:19 15.1 °F 2.6 °F 30.45 in Calm   1 mph 57% 0.00 in 0 W/m2
00:24 15 °F 2.5 °F 30.45 in Calm   1 mph 57% 0.00 in 0 W/m2
00:29 14.9 °F 2.5 °F 30.45 in Calm   1 mph 57% 0.00 in 0 W/m2
00:34 14.8 °F 2.4 °F 30.45 in Calm   1 mph 57% 0.00 in 0 W/m2
00:39 14.7 °F 2.3 °F 30.45 in Calm     57.1% 0.00 in 0 W/m2
00:44 14.6 °F 2.5 °F 30.45 in Calm   1 mph 58% 0.00 in 0 W/m2
00:49 14.5 °F 2.4 °F 30.45 in Calm   1 mph 58% 0.00 in 0 W/m2
00:54 14.4 °F 2.7 °F 30.45 in Calm   1 mph 58.9% 0.00 in 0 W/m2
00:59 14.3 °F 2.6 °F 30.45 in Calm   1 mph 59% 0.00 in 0 W/m2
01:04 14.2 °F 2.5 °F 30.45 in Calm   1 mph 59% 0.00 in 0 W/m2
01:09 14.1 °F 2.4 °F 30.45 in Calm     59% 0.00 in 0 W/m2
01:14 14 °F 2.7 °F 30.45 in Calm     60% 0.00 in 0 W/m2
01:19 13.9 °F 2.6 °F 30.45 in Calm     60% 0.00 in 0 W/m2
01:24 13.7 °F 2.7 °F 30.45 in Calm     60.8% 0.00 in 0 W/m2
01:29 13.5 °F 3 °F 30.46 in Calm     62% 0.00 in 0 W/m2
01:34 13.3 °F 2.7 °F 30.46 in Calm     62% 0.00 in 0 W/m2
01:39 13.1 °F 2.6 °F 30.46 in Calm     62% 0.00 in 0 W/m2
01:44 13 °F 2.7 °F 30.46 in Calm     62.7% 0.00 in 0 W/m2
01:49 13 °F 2.6 °F 30.47 in Calm     62.4% 0.00 in 0 W/m2
01:54 13 °F 2.5 °F 30.47 in Calm     62.3% 0.00 in 0 W/m2
01:59 12.9 °F 2.8 °F 30.46 in Calm     63.4% 0.00 in 0 W/m2
02:04 12.8 °F 2.9 °F 30.46 in Calm     64% 0.00 in 0 W/m2
02:09 12.7 °F 2.8 °F 30.46 in Calm     64% 0.00 in 0 W/m2
02:14 12.6 °F 3.1 °F 30.46 in Calm     65% 0.00 in 0 W/m2
02:19 12.5 °F 3 °F 30.46 in Calm     65% 0.00 in 0 W/m2
02:24 12.3 °F 3.2 °F 30.46 in Calm     66.3% 0.00 in 0 W/m2
02:29 12.2 °F 3.3 °F 30.46 in Calm     67% 0.00 in 0 W/m2
02:34 12 °F 3.2 °F 30.46 in Calm     67% 0.00 in 0 W/m2
02:39 11.8 °F 3.2 °F 30.46 in Calm     67.7% 0.00 in 0 W/m2
02:44 11.6 °F 3.2 °F 30.46 in Calm     68.2% 0.00 in 0 W/m2
02:49 11.5 °F 3.3 °F 30.46 in Calm     69% 0.00 in 0 W/m2
02:54 11.4 °F 3.4 °F 30.46 in Calm     69.7% 0.00 in 0 W/m2
02:59 11.2 °F 3.4 °F 30.46 in Calm     70.1% 0.00 in 0 W/m2
03:04 11.1 °F 3.6 °F 30.46 in Calm     71% 0.00 in 0 W/m2
03:09 11 °F 3.4 °F 30.46 in Calm     71% 0.00 in 0 W/m2
03:14 10.8 °F 3.3 °F 30.46 in Calm     71% 0.00 in 0 W/m2
03:19 10.7 °F 3.2 °F 30.46 in Calm     71.2% 0.00 in 0 W/m2
03:24 10.6 °F 3.4 °F 30.45 in Calm     72.4% 0.00 in 0 W/m2
03:29 10.5 °F 3.5 °F 30.46 in Calm     73% 0.00 in 0 W/m2
03:34 10.4 °F 3.5 °F 30.46 in Calm     73% 0.00 in 0 W/m2
03:39 10.3 °F 3.4 °F 30.45 in Calm     73% 0.00 in 0 W/m2
03:44 10.3 °F 3.4 °F 30.46 in Calm     73% 0.00 in 0 W/m2
03:49 10.3 °F 3.5 °F 30.46 in Calm     73.5% 0.00 in 0 W/m2
03:54 10.2 °F 3.3 °F 30.46 in Calm   1 mph 73% 0.00 in 0 W/m2
03:59 10.1 °F 3.4 °F 30.46 in NW 0.2 mph 1 mph 73.7% 0.00 in 0 W/m2
04:09 9.7 °F 3.4 °F 30.45 in Calm     74.9% 0.00 in 0 W/m2
04:14 9.6 °F 3.3 °F 30.45 in Calm     75% 0.00 in 0 W/m2
04:19 9.5 °F 3.2 °F 30.45 in Calm     75% 0.00 in 0 W/m2
04:24 9.4 °F 3.1 °F 30.45 in Calm     75% 0.00 in 0 W/m2
04:29 9.4 °F 3.1 °F 30.45 in Calm     75% 0.00 in 0 W/m2
04:34 9.3 °F 3 °F 30.45 in Calm     75% 0.00 in 0 W/m2
04:39 9.2 °F 2.9 °F 30.45 in Calm     75.2% 0.00 in 0 W/m2
04:44 9.1 °F 3.1 °F 30.45 in Calm     76% 0.00 in 0 W/m2
04:49 9.1 °F 3.1 °F 30.45 in Calm     76% 0.00 in 0 W/m2
04:54 9 °F 3 °F 30.44 in Calm     76% 0.00 in 0 W/m2
04:59 9 °F 3 °F 30.45 in Calm     76% 0.00 in 0 W/m2
05:04 8.9 °F 3 °F 30.45 in Calm     76.5% 0.00 in 0 W/m2
05:09 8.9 °F 3.2 °F 30.45 in Calm     77% 0.00 in 0 W/m2
05:14 8.9 °F 3.2 °F 30.45 in Calm     77% 0.00 in 0 W/m2
05:19 8.9 °F 3.2 °F 30.45 in Calm     77% 0.00 in 0 W/m2
05:24 8.9 °F 3.2 °F 30.46 in Calm     77% 0.00 in 0 W/m2
05:29 8.9 °F 3.2 °F 30.45 in Calm     77% 0.00 in 0 W/m2
05:34 8.9 °F 3.2 °F 30.45 in Calm     77% 0.00 in 0 W/m2
05:39 8.9 °F 3.1 °F 30.46 in Calm     77% 0.00 in 0 W/m2
05:44 8.8 °F 3.1 °F 30.46 in Calm     77% 0.00 in 0 W/m2
05:49 8.8 °F 3.1 °F 30.46 in Calm     77% 0.00 in 0 W/m2
05:54 8.8 °F 3.2 °F 30.47 in Calm     77.5% 0.00 in 0 W/m2
05:59 8.8 °F 3.3 °F 30.47 in Calm     78% 0.00 in 0 W/m2
06:04 8.7 °F 3.3 °F 30.47 in Calm     78% 0.00 in 0 W/m2
06:09 8.6 °F 3.2 °F 30.47 in Calm     78% 0.00 in 0 W/m2
06:14 8.5 °F 3.1 °F 30.47 in Calm     78.2% 0.00 in 0 W/m2
06:19 8.4 °F 3.2 °F 30.47 in Calm     79% 0.00 in 0 W/m2
06:24 8.3 °F 3.1 °F 30.47 in Calm     79% 0.00 in 0 W/m2
06:29 8.3 °F 3.1 °F 30.48 in Calm     79% 0.00 in 0 W/m2
06:34 8.2 °F 3.2 °F 30.48 in Calm     79.7% 0.00 in 0 W/m2
06:39 8.2 °F 3.3 °F 30.48 in Calm     80% 0.00 in 0 W/m2
06:44 8.2 °F 3.3 °F 30.47 in Calm     80% 0.00 in 0 W/m2
06:49 8.2 °F 3.3 °F 30.47 in Calm     80% 0.00 in 0 W/m2
06:54 8.1 °F 3.2 °F 30.47 in Calm     80% 0.00 in 0 W/m2
06:59 8.1 °F 3.2 °F 30.47 in Calm     80% 0.00 in 0 W/m2
07:04 8 °F 3.1 °F 30.47 in Calm     80% 0.00 in 0 W/m2
07:09 8 °F 3.1 °F 30.47 in Calm     80% 0.00 in 5 W/m2
07:14 8 °F 3.2 °F 30.47 in Calm     80.4% 0.00 in 7 W/m2
07:19 8 °F 3.4 °F 30.48 in Calm     81% 0.00 in 11 W/m2
07:24 8 °F 3.4 °F 30.48 in Calm     81% 0.00 in 14 W/m2
07:29 8.1 °F 3.8 °F 30.48 in Calm     82% 0.00 in 21 W/m2
07:34 8.3 °F 3.9 °F 30.48 in Calm     82% 0.00 in 35 W/m2
07:39 8.5 °F 4.2 °F 30.47 in Calm     82% 0.00 in 56 W/m2
07:44 8.9 °F 4.8 °F 30.48 in Calm     82.9% 0.00 in 60 W/m2
07:49 9.4 °F 5.7 °F 30.48 in Calm     84.5% 0.00 in 28 W/m2
07:54 9.8 °F 5.5 °F 30.48 in Calm     82% 0.00 in 32 W/m2
07:59 10.2 °F 5.6 °F 30.49 in Calm     81.5% 0.00 in 54 W/m2
08:00 10.4 °F 5.7 °F 30.48 in Calm     81% 0.00 in 46 W/m2
08:09 11.1 °F 6.4 °F 30.48 in NW 0.1 mph 2 mph 81% 0.00 in 62 W/m2
08:14 11.6 °F 7.2 °F 30.48 in Calm   2 mph 82.3% 0.00 in 58 W/m2
08:19 11.9 °F 6.9 °F 30.48 in Calm   2 mph 79.6% 0.00 in 51 W/m2
08:24 12.3 °F 7 °F 30.48 in Calm   2 mph 79% 0.00 in 223 W/m2
08:29 12.6 °F 7.1 °F 30.48 in Calm   2 mph 78.3% 0.00 in 229 W/m2
08:34 13.2 °F 7.7 °F 30.48 in Calm   2 mph 78.2% 0.00 in 216 W/m2
08:39 14.2 °F 8.7 °F 30.49 in Calm     78.6% 0.00 in 253 W/m2
08:44 15.2 °F 9.3 °F 30.48 in NW 0.2 mph 2 mph 77.1% 0.00 in 295 W/m2
08:49 16.1 °F 9.7 °F 30.48 in Calm   2 mph 75.3% 0.00 in 302 W/m2
08:54 16.9 °F 9.8 °F 30.48 in Calm   2 mph 73.2% 0.00 in 304 W/m2
08:59 17.6 °F 10 °F 30.48 in Calm   2 mph 71.5% 0.00 in 316 W/m2
09:04 18.3 °F 10.1 °F 30.48 in Calm   2 mph 69.8% 0.00 in 329 W/m2
09:09 18.9 °F 10.2 °F 30.48 in Calm   1 mph 68.4% 0.00 in 345 W/m2
09:14 19.7 °F 10.6 °F 30.48 in NW 0.3 mph 2 mph 67.4% 0.00 in 352 W/m2
09:19 20.2 °F 10.3 °F 30.48 in Calm   2 mph 65.1% 0.00 in 366 W/m2
09:24 20.5 °F 10.3 °F 30.47 in NW 0.7 mph 2 mph 64% 0.00 in 373 W/m2
09:29 21 °F 10.5 °F 30.47 in Calm   2 mph 63.2% 0.00 in 385 W/m2
09:34 21.2 °F 10.2 °F 30.47 in Calm   2 mph 62% 0.00 in 385 W/m2
09:39 21.1 °F 10.2 °F 30.47 in Calm   1 mph 62% 0.00 in 315 W/m2
09:44 21.1 °F 10.1 °F 30.46 in NW 0.1 mph 2 mph 61.9% 0.00 in 397 W/m2
09:49 20.9 °F 9.4 °F 30.46 in Calm   2 mph 60.5% 0.00 in 399 W/m2
09:54 20.5 °F 9 °F 30.46 in Calm   2 mph 60.4% 0.00 in 378 W/m2
09:59 20.4 °F 8.9 °F 30.46 in Calm   2 mph 60.7% 0.00 in 316 W/m2
10:04 20.3 °F 9 °F 30.46 in Calm   2 mph 61% 0.00 in 225 W/m2
10:09 20.2 °F 8.7 °F 30.46 in Calm     60.6% 0.00 in 294 W/m2
10:14 20.2 °F 9 °F 30.45 in Calm     61.3% 0.00 in 446 W/m2
10:19 20.6 °F 9.2 °F 30.45 in NW 0.1 mph 2 mph 60.8% 0.00 in 446 W/m2
10:24 20.9 °F 9.2 °F 30.45 in Calm   2 mph 60% 0.00 in 401 W/m2
10:29 21.4 °F 9.7 °F 30.45 in NW 0.2 mph 2 mph 60.1% 0.00 in 406 W/m2
10:34 21.7 °F 9.1 °F 30.44 in NW 0.2 mph 2 mph 57.6% 0.00 in 487 W/m2
10:39 22.1 °F 9.3 °F 30.45 in NW 0.1 mph 2 mph 57.2% 0.00 in 496 W/m2
10:44 22.9 °F 9.8 °F 30.44 in Calm   2 mph 56.8% 0.00 in 519 W/m2
10:49 23.6 °F 10.1 °F 30.44 in Calm   2 mph 55.6% 0.00 in 524 W/m2
10:54 24.5 °F 10.5 °F 30.44 in NW 0.3 mph 2 mph 54.7% 0.00 in 533 W/m2
10:59 24.8 °F 9.5 °F 30.44 in NW 0.3 mph 2 mph 51.6% 0.00 in 538 W/m2
11:04 24.7 °F 9.3 °F 30.44 in NW 0.2 mph 2 mph 51.3% 0.00 in 538 W/m2
11:09 24.9 °F 9.4 °F 30.43 in NW 0.1 mph 2 mph 51.3% 0.00 in 339 W/m2
11:14 24.9 °F 9.2 °F 30.43 in NW 0.6 mph 4 mph 50.7% 0.00 in 248 W/m2
11:19 24.7 °F 8.5 °F 30.43 in WNW 0.9 mph 4 mph 49.5% 0.00 in 171 W/m2
11:24 24.7 °F 8.8 °F 30.42 in WNW 0.8 mph 4 mph 50.1% 0.00 in 285 W/m2
11:29 24.6 °F 7.9 °F 30.42 in SSE 1.1 mph 5 mph 48.3% 0.00 in 285 W/m2
11:34 24.6 °F 8.3 °F 30.41 in SSE 0.5 mph 5 mph 49.3% 0.00 in 403 W/m2
11:39 24.6 °F 7.5 °F 30.41 in SSE 1.2 mph 5 mph 47.6% 0.00 in 336 W/m2
11:44 24.5 °F 7.7 °F 30.41 in South 0.4 mph 5 mph 48.1% 0.00 in 279 W/m2
11:49 24.8 °F 8.4 °F 30.40 in South 0.8 mph 5 mph 49% 0.00 in 214 W/m2
11:54 25.1 °F 8.1 °F 30.40 in South 1.9 mph 5 mph 47.7% 0.00 in 130 W/m2
11:59 25.3 °F 8.2 °F 30.40 in SSW 1 mph 7 mph 47.7% 0.00 in 253 W/m2
12:00 25.4 °F 8.5 °F 30.39 in SW 2 mph 7 mph 48% 0.00 in 144 W/m2
12:09 25.5 °F 7.8 °F 30.39 in SSW 0.8 mph 3 mph 46.5% 0.00 in 339 W/m2
12:14 25.7 °F 8.2 °F 30.39 in SSW 0.5 mph 3 mph 46.8% 0.00 in 406 W/m2
12:19 26 °F 8.1 °F 30.38 in South 1.1 mph 7 mph 46% 0.00 in 163 W/m2
12:24 26.2 °F 7.4 °F 30.38 in South 1.7 mph 7 mph 44.3% 0.00 in 165 W/m2
12:29 26.5 °F 7.1 °F 30.38 in SSW 1.6 mph 7 mph 43% 0.00 in 216 W/m2
12:34 26.9 °F 7.6 °F 30.38 in SW 2.8 mph 9 mph 43.5% 0.00 in 211 W/m2
12:39 27.2 °F 7.7 °F 30.37 in SW 3.2 mph 9 mph 43% 0.00 in 125 W/m2
12:44 27.4 °F 8.2 °F 30.37 in SW 1.4 mph 9 mph 43.6% 0.00 in 221 W/m2
12:49 27.7 °F 8.3 °F 30.37 in SW 1.1 mph 9 mph 43.3% 0.00 in 329 W/m2
12:54 27.9 °F 8.4 °F 30.36 in SW 1.6 mph 9 mph 43.2% 0.00 in 107 W/m2
12:58 28 °F 8.5 °F 30.36 in SW 1.5 mph 9 mph 43.1% 0.00 in 438 W/m2
13:04 28.1 °F 8.1 °F 30.36 in SW 2.3 mph 11 mph 42.2% 0.00 in 338 W/m2
13:09 28 °F 7.4 °F 30.36 in SSW 2.6 mph 12 mph 41.2% 0.00 in 86 W/m2
13:14 27.9 °F 7.8 °F 30.35 in SSW 1.2 mph 12 mph 42% 0.00 in 97 W/m2
13:19 27.9 °F 7.8 °F 30.35 in SSW 1.5 mph 12 mph 42% 0.00 in 181 W/m2
13:24 28.2 °F 8.1 °F 30.35 in SW 3.6 mph 12 mph 42% 0.00 in 181 W/m2
13:29 28.6 °F 8.8 °F 30.34 in SW 1.5 mph 12 mph 42.7% 0.00 in 211 W/m2
13:34 28.9 °F 8.7 °F 30.34 in SW 2.6 mph 12 mph 42% 0.00 in 246 W/m2
13:39 29.1 °F 8.9 °F 30.34 in SW 1 mph 11 mph 42% 0.00 in 417 W/m2
13:44 29.1 °F 8.4 °F 30.33 in South 2.7 mph 11 mph 40.9% 0.00 in 441 W/m2
13:49 29 °F 8.4 °F 30.33 in SSW 3.2 mph 11 mph 41.3% 0.00 in 352 W/m2
13:54 28.7 °F 8 °F 30.32 in South 2.2 mph 11 mph 41% 0.00 in 202 W/m2
13:59 28.7 °F 9.1 °F 30.32 in SSW 2 mph 11 mph 43.2% 0.00 in 118 W/m2
14:04 28.9 °F 9.6 °F 30.32 in South 2.1 mph 12 mph 43.8% 0.00 in 264 W/m2
14:09 28.9 °F 10.2 °F 30.32 in South 2 mph 12 mph 44.9% 0.00 in 262 W/m2
14:14 29 °F 10.7 °F 30.32 in SSW 1.9 mph 12 mph 45.9% 0.00 in 257 W/m2
14:19 29 °F 11.1 °F 30.31 in South 1.9 mph 12 mph 46.5% 0.00 in 404 W/m2
14:24 28.9 °F 11.6 °F 30.31 in South 2.3 mph 12 mph 47.8% 0.00 in 267 W/m2
14:29 28.7 °F 11.9 °F 30.30 in South 3.4 mph 12 mph 48.9% 0.00 in 179 W/m2
14:34 28.6 °F 12 °F 30.30 in South 2.2 mph 12 mph 49.4% 0.00 in 163 W/m2
14:39 28.6 °F 12.7 °F 30.30 in South 1.2 mph 9 mph 50.9% 0.00 in 93 W/m2
14:44 28.6 °F 13 °F 30.30 in SSW 1.9 mph 9 mph 51.5% 0.00 in 114 W/m2
14:49 28.6 °F 13.5 °F 30.30 in SSW 2.6 mph 9 mph 52.7% 0.00 in 91 W/m2
14:54 28.5 °F 13.4 °F 30.29 in SSW 1.4 mph 9 mph 52.8% 0.00 in 214 W/m2
14:59 28.4 °F 13.8 °F 30.29 in SW 1.8 mph 9 mph 54% 0.00 in 214 W/m2
15:04 28.3 °F 14 °F 30.30 in SSW 1.1 mph 9 mph 54.6% 0.00 in 32 W/m2
15:09 28.3 °F 14.2 °F 30.30 in SSW 1.2 mph 4 mph 54.9% 0.00 in 32 W/m2
15:14 28.4 °F 13.9 °F 30.30 in SSW 1.5 mph 7 mph 54% 0.00 in 30 W/m2
15:19 28.4 °F 13.6 °F 30.30 in South 1.9 mph 7 mph 53.3% 0.00 in 30 W/m2
15:24 28.3 °F 13 °F 30.30 in SSW 1.8 mph 7 mph 52% 0.00 in 28 W/m2
15:29 28.3 °F 12.9 °F 30.30 in SSW 1 mph 7 mph 52% 0.00 in 28 W/m2
15:34 28.4 °F 12.8 °F 30.30 in SSW 1.8 mph 7 mph 51.5% 0.00 in 26 W/m2
15:39 28.5 °F 11.5 °F 30.30 in SW 3 mph 7 mph 48.4% 0.00 in 25 W/m2
15:44 28.5 °F 11.1 °F 30.30 in SW 3.7 mph 11 mph 47.5% 0.00 in 25 W/m2
15:49 28.5 °F 11.1 °F 30.29 in SW 1.8 mph 11 mph 47.5% 0.00 in 23 W/m2
15:54 28.5 °F 10.9 °F 30.29 in SW 2.7 mph 11 mph 47% 0.00 in 23 W/m2
15:59 28.6 °F 11 °F 30.28 in SW 1.4 mph 11 mph 47.1% 0.00 in 21 W/m2
16:09 28.6 °F 10.9 °F 30.29 in SW 1 mph 3 mph 47% 0.00 in 19 W/m2
16:14 28.6 °F 11.4 °F 30.29 in SW 0.3 mph 3 mph 47.9% 0.00 in 19 W/m2
16:19 28.6 °F 11.4 °F 30.28 in SW 1.3 mph 7 mph 48% 0.00 in 18 W/m2
16:24 28.5 °F 11 °F 30.28 in SSW 1.8 mph 9 mph 47.3% 0.00 in 16 W/m2
16:29 28.4 °F 10.7 °F 30.28 in South 1.8 mph 9 mph 47% 0.00 in 16 W/m2
16:34 28.2 °F 10.8 °F 30.28 in South 1.2 mph 9 mph 47.5% 0.00 in 14 W/m2
16:39 28.1 °F 11.1 °F 30.27 in SSW 0.2 mph 3 mph 48.5% 0.00 in 11 W/m2
16:44 27.9 °F 11.3 °F 30.27 in SSW 0.7 mph 3 mph 49.2% 0.00 in 7 W/m2
16:49 27.7 °F 11.6 °F 30.27 in South 0.8 mph 3 mph 50.1% 0.00 in 5 W/m2
16:54 27.5 °F 11.9 °F 30.26 in SSW 1.2 mph 6 mph 51.3% 0.00 in 0 W/m2
16:59 27.2 °F 11.9 °F 30.26 in South 1.6 mph 7 mph 52% 0.00 in 0 W/m2
17:04 27 °F 12.3 °F 30.26 in SSW 0.9 mph 7 mph 53.2% 0.00 in 0 W/m2
17:08 26.9 °F 12.5 °F 30.26 in SW 0.6 mph 3 mph 54% 0.00 in 0 W/m2
17:14 26.8 °F 12.8 °F 30.27 in SW 0.5 mph 3 mph 55.1% 0.00 in 0 W/m2
17:19 26.7 °F 13.1 °F 30.27 in SW 1.1 mph 7 mph 56% 0.00 in 0 W/m2
17:24 26.6 °F 13 °F 30.27 in SSW 0.7 mph 7 mph 56.1% 0.00 in 0 W/m2
17:29 26.5 °F 13.3 °F 30.28 in SW 2 mph 7 mph 57% 0.00 in 0 W/m2
17:34 26.4 °F 13.6 °F 30.28 in SW 1.5 mph 7 mph 57.9% 0.00 in 0 W/m2
17:39 26.4 °F 13.6 °F 30.27 in SW 0.4 mph 6 mph 58% 0.00 in 0 W/m2
17:44 26.3 °F 14 °F 30.27 in SW 0.1 mph 6 mph 59% 0.00 in 0 W/m2
17:49 26.3 °F 13.9 °F 30.27 in Calm   6 mph 59% 0.00 in 0 W/m2
17:54 26.2 °F 13.8 °F 30.27 in SW 0.1 mph 6 mph 59% 0.00 in 0 W/m2
17:59 26.1 °F 13.9 °F 30.27 in SW 0.1 mph 6 mph 59.4% 0.00 in 0 W/m2
18:04 26 °F 14 °F 30.27 in Calm   6 mph 59.9% 0.00 in 0 W/m2
18:09 26 °F 14 °F 30.27 in Calm   1 mph 60% 0.00 in 0 W/m2
18:14 25.8 °F 13.9 °F 30.26 in Calm   1 mph 60% 0.00 in 0 W/m2
18:19 25.8 °F 13.8 °F 30.26 in Calm   1 mph 60% 0.00 in 0 W/m2
18:24 25.7 °F 13.7 °F 30.26 in SW 0.1 mph 1 mph 60% 0.00 in 0 W/m2
18:29 25.6 °F 13.7 °F 30.26 in Calm   1 mph 60% 0.00 in 0 W/m2
18:34 25.5 °F 13.7 °F 30.26 in Calm   1 mph 60.6% 0.00 in 0 W/m2
18:39 25.3 °F 13.8 °F 30.26 in SW 0.1 mph 2 mph 61% 0.00 in 0 W/m2
18:44 25.2 °F 13.7 °F 30.26 in SW 0.1 mph 2 mph 61% 0.00 in 0 W/m2
18:49 25.1 °F 13.8 °F 30.25 in SW 0.1 mph 2 mph 61.7% 0.00 in 0 W/m2
18:54 25 °F 13.8 °F 30.26 in Calm   2 mph 62% 0.00 in 0 W/m2
18:59 24.8 °F 13.7 °F 30.26 in Calm   2 mph 62% 0.00 in 0 W/m2
19:04 24.7 °F 13.7 °F 30.25 in Calm   2 mph 62.4% 0.00 in 0 W/m2
19:09 24.6 °F 13.9 °F 30.25 in Calm     63% 0.00 in 0 W/m2
19:14 24.5 °F 13.8 °F 30.25 in Calm   1 mph 63% 0.00 in 0 W/m2
19:19 24.5 °F 14 °F 30.25 in SW 0.1 mph 1 mph 63.7% 0.00 in 0 W/m2
19:24 24.5 °F 14.1 °F 30.26 in Calm   1 mph 64% 0.00 in 0 W/m2
19:29 24.4 °F 14 °F 30.26 in Calm   1 mph 64% 0.00 in 0 W/m2
19:34 24.3 °F 14.1 °F 30.25 in Calm   1 mph 64.6% 0.00 in 0 W/m2
19:39 24.2 °F 14.2 °F 30.25 in Calm   1 mph 65% 0.00 in 0 W/m2
19:44 24.1 °F 14.1 °F 30.24 in SW 0.1 mph 2 mph 65% 0.00 in 0 W/m2
19:49 24.1 °F 14.1 °F 30.24 in SW 0.2 mph 3 mph 65% 0.00 in 0 W/m2
19:54 24 °F 14.3 °F 30.24 in SW 0.2 mph 3 mph 66% 0.00 in 0 W/m2
19:59 24 °F 14.3 °F 30.23 in SW 0.1 mph 3 mph 66% 0.00 in 0 W/m2
20:00 24 °F 14.3 °F 30.23 in Calm   3 mph 66% 0.00 in 0 W/m2
20:09 23.9 °F 14.2 °F 30.24 in Calm     66% 0.00 in 0 W/m2
20:14 23.8 °F 14.1 °F 30.24 in Calm     66% 0.00 in 0 W/m2
20:19 23.7 °F 14.2 °F 30.24 in Calm     66.7% 0.00 in 0 W/m2
20:24 23.5 °F 14.2 °F 30.23 in Calm     67% 0.00 in 0 W/m2
20:29 23.4 °F 14.3 °F 30.23 in Calm     67.7% 0.00 in 0 W/m2
20:34 23.3 °F 14.3 °F 30.23 in Calm     68% 0.00 in 0 W/m2
20:39 23.2 °F 14.2 °F 30.24 in Calm     68% 0.00 in 0 W/m2
20:44 23 °F 14.1 °F 30.24 in Calm     68.1% 0.00 in 0 W/m2
20:49 22.8 °F 14.2 °F 30.23 in Calm     69% 0.00 in 0 W/m2
20:54 22.6 °F 14.3 °F 30.22 in SW 0.2 mph 2 mph 70.1% 0.00 in 0 W/m2
20:59 22.7 °F 14.8 °F 30.22 in Calm   2 mph 71% 0.00 in 0 W/m2
21:04 22.9 °F 15 °F 30.22 in Calm   2 mph 71% 0.00 in 0 W/m2
21:09 23 °F 15 °F 30.22 in Calm     71% 0.00 in 0 W/m2
21:14 23 °F 15 °F 30.22 in Calm     71% 0.00 in 0 W/m2
21:19 22.9 °F 14.9 °F 30.21 in Calm     71% 0.00 in 0 W/m2
21:24 22.9 °F 14.9 °F 30.21 in Calm     71% 0.00 in 0 W/m2
21:29 22.8 °F 14.9 °F 30.21 in Calm     71.2% 0.00 in 0 W/m2
21:34 22.7 °F 15.1 °F 30.22 in Calm     72% 0.00 in 0 W/m2
21:39 22.6 °F 15.1 °F 30.21 in Calm     72.5% 0.00 in 0 W/m2
21:44 22.6 °F 15.4 °F 30.20 in Calm     73.1% 0.00 in 0 W/m2
21:49 22.7 °F 15.7 °F 30.21 in Calm     74% 0.00 in 0 W/m2
21:54 22.7 °F 15.7 °F 30.21 in Calm   1 mph 74% 0.00 in 0 W/m2
21:59 22.8 °F 15.8 °F 30.20 in Calm   1 mph 74% 0.00 in 0 W/m2
22:04 22.9 °F 16 °F 30.20 in Calm   1 mph 74.6% 0.00 in 0 W/m2
22:09 23 °F 16.3 °F 30.20 in Calm     75% 0.00 in 0 W/m2
22:14 23 °F 16.3 °F 30.20 in Calm     75% 0.00 in 0 W/m2
22:19 23.1 °F 16.4 °F 30.20 in Calm     75% 0.00 in 0 W/m2
22:24 23.1 °F 16.4 °F 30.20 in Calm     75% 0.00 in 0 W/m2
22:29 23.1 °F 16.4 °F 30.20 in Calm     75% 0.00 in 0 W/m2
22:34 23.1 °F 16.4 °F 30.20 in Calm     75% 0.00 in 0 W/m2
22:39 23.1 °F 16.4 °F 30.20 in Calm     75.2% 0.00 in 0 W/m2
22:44 23.1 °F 16.6 °F 30.20 in Calm     75.6% 0.00 in 0 W/m2
22:49 23.3 °F 16.8 °F 30.20 in Calm     76% 0.00 in 0 W/m2
22:54 23.5 °F 17.1 °F 30.20 in Calm     76.3% 0.00 in 0 W/m2
22:59 23.7 °F 17.5 °F 30.20 in Calm     77% 0.00 in 0 W/m2
23:00 23.8 °F 17.7 °F 30.19 in Calm     77% 0.00 in 0 W/m2
23:09 24.2 °F 18 °F 30.19 in Calm     77% 0.00 in 0 W/m2
23:14 24.5 °F 18.4 °F 30.20 in SW 0.1 mph 1 mph 77.5% 0.00 in 0 W/m2
23:19 24.7 °F 18.7 °F 30.19 in Calm   1 mph 77.4% 0.00 in 0 W/m2
23:24 24.9 °F 18.7 °F 30.19 in Calm   1 mph 77% 0.00 in 0 W/m2
23:29 24.9 °F 18.8 °F 30.19 in Calm   1 mph 77% 0.00 in 0 W/m2
23:34 25 °F 18.8 °F 30.19 in Calm   1 mph 77% 0.00 in 0 W/m2
23:39 25.1 °F 18.9 °F 30.19 in Calm     77% 0.00 in 0 W/m2
23:44 25.1 °F 18.8 °F 30.19 in Calm     76.8% 0.00 in 0 W/m2
23:49 25 °F 18.5 °F 30.19 in Calm     76% 0.00 in 0 W/m2
23:54 24.9 °F 18.5 °F 30.18 in Calm     76% 0.00 in 0 W/m2
23:59 24.9 °F 18.4 °F 30.18 in SW 0.1 mph 2 mph 76% 0.00 in 0 W/m2
Hartford County Weather
Compliments of Weather Underground - 4 mb